createdAt,value
2023-03-02T00:01:11.157Z,0.33
2023-03-02T00:03:41.811Z,0.39
2023-03-02T00:06:09.815Z,0.43
2023-03-02T00:08:38.609Z,0.50
2023-03-02T00:11:05.874Z,0.51
2023-03-02T00:13:36.366Z,0.57
2023-03-02T00:16:03.621Z,0.61
2023-03-02T00:18:30.791Z,0.61
2023-03-02T00:20:58.099Z,0.66
2023-03-02T00:23:25.457Z,0.71
2023-03-02T00:25:52.649Z,0.72
2023-03-02T00:28:19.778Z,0.74
2023-03-02T00:30:46.848Z,0.75
2023-03-02T00:33:15.264Z,0.75
2023-03-02T00:35:42.590Z,0.76
2023-03-02T00:38:09.776Z,0.77
2023-03-02T00:40:37.265Z,0.79
2023-03-02T00:43:04.577Z,0.78
2023-03-02T00:45:31.714Z,0.81
2023-03-02T00:47:58.942Z,0.64
2023-03-02T00:50:26.064Z,0.82
2023-03-02T00:52:53.390Z,0.84
2023-03-02T00:55:20.626Z,0.87
2023-03-02T00:57:55.392Z,0.88
2023-03-02T01:00:28.861Z,0.92
2023-03-02T01:03:00.213Z,0.92
2023-03-02T01:05:27.922Z,0.93
2023-03-02T01:07:55.013Z,0.96
2023-03-02T01:10:22.197Z,0.95
2023-03-02T01:12:49.207Z,0.96
2023-03-02T01:15:16.420Z,0.98
2023-03-02T01:17:44.141Z,0.99
2023-03-02T01:20:12.415Z,1.00
2023-03-02T01:22:39.630Z,0.98
2023-03-02T01:25:07.104Z,1.02
2023-03-02T01:27:34.314Z,1.03
2023-03-02T01:30:01.456Z,1.02
2023-03-02T01:32:28.563Z,1.03
2023-03-02T01:34:55.763Z,0.94
2023-03-02T01:37:23.346Z,0.98
2023-03-02T01:39:51.106Z,0.88
2023-03-02T01:42:18.505Z,0.93
2023-03-02T01:44:48.697Z,0.85
2023-03-02T01:47:35.626Z,0.80
2023-03-02T01:50:29.065Z,0.70
2023-03-02T01:52:59.337Z,0.78
2023-03-02T01:55:31.852Z,0.81
2023-03-02T01:58:01.147Z,0.81
2023-03-02T02:00:33.415Z,0.82
2023-03-02T02:03:09.423Z,0.81
2023-03-02T02:05:42.810Z,0.84
2023-03-02T02:08:10.504Z,0.86
2023-03-02T02:10:39.697Z,0.91
2023-03-02T02:13:11.021Z,0.94
2023-03-02T02:15:39.355Z,0.99
2023-03-02T02:18:06.846Z,1.02
2023-03-02T02:20:38.484Z,1.01
2023-03-02T02:23:21.053Z,1.07
2023-03-02T02:25:53.906Z,1.10
2023-03-02T02:28:49.462Z,1.10
2023-03-02T02:31:26.928Z,1.06
2023-03-02T02:34:01.059Z,1.07
2023-03-02T02:36:34.978Z,1.07
2023-03-02T02:39:09.097Z,1.05
2023-03-02T02:41:39.996Z,0.99
2023-03-02T02:44:09.863Z,1.02
2023-03-02T02:46:37.025Z,1.00
2023-03-02T02:49:06.103Z,0.98
2023-03-02T02:51:33.972Z,0.93
2023-03-02T02:54:03.406Z,0.95
2023-03-02T02:56:39.934Z,0.93
2023-03-02T02:59:21.260Z,0.93
2023-03-02T03:01:49.229Z,0.83
2023-03-02T03:04:22.435Z,0.93
2023-03-02T03:06:53.474Z,0.97
2023-03-02T03:09:21.534Z,0.94
2023-03-02T03:11:52.901Z,1.02
2023-03-02T03:14:25.300Z,1.02
2023-03-02T03:16:54.600Z,1.06
2023-03-02T03:19:25.390Z,1.08
2023-03-02T03:21:56.095Z,1.08
2023-03-02T03:24:25.856Z,1.09
2023-03-02T03:26:57.104Z,1.10
2023-03-02T03:29:26.685Z,1.11
2023-03-02T03:32:00.116Z,1.07
2023-03-02T03:34:29.467Z,1.05
2023-03-02T03:37:01.940Z,1.02
2023-03-02T03:39:33.772Z,1.08
2023-03-02T03:42:01.057Z,1.10
2023-03-02T03:44:28.830Z,1.12
2023-03-02T03:46:56.337Z,1.14
2023-03-02T03:49:23.908Z,1.14
2023-03-02T03:51:51.133Z,1.14
2023-03-02T03:54:18.991Z,1.13
2023-03-02T03:56:48.612Z,1.13
2023-03-02T03:59:19.091Z,1.10
2023-03-02T04:01:57.827Z,1.05
2023-03-02T04:04:32.621Z,1.10
2023-03-02T04:07:01.667Z,1.09
2023-03-02T04:09:31.870Z,1.11
2023-03-02T04:11:59.292Z,1.11
2023-03-02T04:14:27.421Z,1.13
2023-03-02T04:16:56.500Z,1.12
2023-03-02T04:19:25.173Z,1.13
2023-03-02T04:21:55.891Z,1.11
2023-03-02T04:24:24.915Z,1.14
2023-03-02T04:26:55.228Z,1.13
2023-03-02T04:29:23.606Z,1.14
2023-03-02T04:31:51.745Z,1.13
2023-03-02T04:34:21.429Z,1.14
2023-03-02T04:36:48.558Z,1.14
2023-03-02T04:39:18.186Z,1.13
2023-03-02T04:41:49.661Z,1.13
2023-03-02T04:44:17.751Z,1.13
2023-03-02T04:46:45.557Z,1.15
2023-03-02T04:49:14.505Z,1.12
2023-03-02T04:51:45.196Z,1.11
2023-03-02T04:54:21.064Z,1.15
2023-03-02T04:56:48.781Z,1.16
2023-03-02T04:59:17.419Z,1.12
2023-03-02T05:01:48.216Z,1.16
2023-03-02T05:04:16.525Z,1.15
2023-03-02T05:06:44.027Z,1.17
2023-03-02T05:09:11.514Z,1.18
2023-03-02T05:11:38.853Z,1.17
2023-03-02T05:14:08.624Z,1.20
2023-03-02T05:16:38.661Z,1.20
2023-03-02T05:19:10.096Z,1.17
2023-03-02T05:21:37.277Z,1.20
2023-03-02T05:24:04.628Z,1.19
2023-03-02T05:26:32.325Z,1.14
2023-03-02T05:28:59.762Z,1.20
2023-03-02T05:31:36.769Z,1.18
2023-03-02T05:34:09.909Z,1.19
2023-03-02T05:36:37.821Z,1.22
2023-03-02T05:39:06.272Z,1.21
2023-03-02T05:41:33.672Z,1.19
2023-03-02T05:44:00.984Z,1.25
2023-03-02T05:46:28.457Z,1.26
2023-03-02T05:48:55.656Z,1.23
2023-03-02T05:51:22.956Z,1.28
2023-03-02T05:53:50.136Z,1.30
2023-03-02T05:56:17.347Z,1.05
2023-03-02T05:58:44.473Z,1.27
2023-03-02T06:01:15.147Z,1.23
2023-03-02T06:03:43.432Z,1.29
2023-03-02T06:06:16.018Z,1.28
2023-03-02T06:08:43.815Z,1.30
2023-03-02T06:11:11.952Z,1.29
2023-03-02T06:13:39.981Z,1.27
2023-03-02T06:16:08.194Z,1.25
2023-03-02T06:18:36.426Z,1.29
2023-03-02T06:21:04.541Z,1.29
2023-03-02T06:23:31.791Z,1.30
2023-03-02T06:25:59.367Z,1.30
2023-03-02T06:28:27.264Z,1.18
2023-03-02T06:30:54.620Z,1.24
2023-03-02T06:33:22.290Z,1.24
2023-03-02T06:35:50.641Z,1.24
2023-03-02T06:38:17.954Z,1.25
2023-03-02T06:40:45.347Z,1.23
2023-03-02T06:43:12.500Z,1.23
2023-03-02T06:45:39.703Z,1.20
2023-03-02T06:48:07.754Z,1.17
2023-03-02T06:50:35.552Z,1.18
2023-03-02T06:53:03.394Z,1.20
2023-03-02T06:55:30.624Z,1.20
2023-03-02T06:57:57.779Z,1.21
2023-03-02T07:00:27.477Z,1.18
2023-03-02T07:02:56.183Z,1.07
2023-03-02T07:05:24.704Z,1.11
2023-03-02T07:07:52.531Z,1.03
2023-03-02T07:10:19.981Z,1.14
2023-03-02T07:12:47.085Z,1.14
2023-03-02T07:15:14.710Z,1.10
2023-03-02T07:17:44.325Z,1.15
2023-03-02T07:20:17.148Z,1.12
2023-03-02T07:22:44.631Z,1.18
2023-03-02T07:25:12.011Z,1.19
2023-03-02T07:27:39.285Z,1.15
2023-03-02T07:30:07.229Z,1.18
2023-03-02T07:32:34.742Z,1.13
2023-03-02T07:35:01.951Z,1.17
2023-03-02T07:37:29.059Z,1.19
2023-03-02T07:39:56.215Z,1.17
2023-03-02T07:42:23.389Z,1.24
2023-03-02T07:44:55.976Z,1.25
2023-03-02T07:47:23.641Z,1.26
2023-03-02T07:49:51.183Z,1.24
2023-03-02T07:52:18.337Z,1.24
2023-03-02T07:54:45.481Z,1.27
2023-03-02T07:57:16.401Z,1.31
2023-03-02T07:59:44.044Z,1.33
2023-03-02T08:02:17.518Z,1.39
2023-03-02T08:04:44.711Z,1.39
2023-03-02T08:07:11.868Z,1.36
2023-03-02T08:09:40.025Z,1.36
2023-03-02T08:12:07.272Z,1.29
2023-03-02T08:14:34.450Z,1.28
2023-03-02T08:17:02.599Z,1.28
2023-03-02T08:19:29.759Z,1.32
2023-03-02T08:21:56.987Z,1.33
2023-03-02T08:24:24.085Z,1.34
2023-03-02T08:26:51.241Z,1.33
2023-03-02T08:29:18.601Z,1.31
2023-03-02T08:31:45.763Z,1.28
2023-03-02T08:34:13.063Z,1.29
2023-03-02T08:36:41.225Z,1.30
2023-03-02T08:39:08.356Z,1.20
2023-03-02T08:41:35.851Z,1.18
2023-03-02T08:44:03.190Z,1.23
2023-03-02T08:46:31.539Z,1.27
2023-03-02T08:48:58.684Z,1.34
2023-03-02T08:51:26.425Z,1.37
2023-03-02T08:53:55.699Z,1.40
2023-03-02T08:56:28.828Z,1.40
2023-03-02T08:58:58.781Z,1.53
2023-03-02T09:01:30.141Z,1.56
2023-03-02T09:04:00.026Z,1.58
2023-03-02T09:06:29.032Z,1.58
2023-03-02T09:08:56.539Z,1.65
2023-03-02T09:11:23.861Z,1.65
2023-03-02T09:13:51.466Z,1.71
2023-03-02T09:16:20.586Z,1.73
2023-03-02T09:18:48.347Z,1.73
2023-03-02T09:21:15.780Z,1.73
2023-03-02T09:23:43.193Z,1.76
2023-03-02T09:26:11.078Z,1.80
2023-03-02T09:28:39.187Z,1.81
2023-03-02T09:31:09.106Z,1.87
2023-03-02T09:33:37.329Z,1.92
2023-03-02T09:36:12.826Z,1.95
2023-03-02T09:38:40.374Z,1.98
2023-03-02T09:41:20.118Z,2.00
2023-03-02T09:44:13.782Z,2.00
2023-03-02T09:46:48.375Z,1.98
2023-03-02T09:49:21.836Z,2.03
2023-03-02T09:52:11.915Z,2.03
2023-03-02T09:54:41.206Z,2.07
2023-03-02T09:57:31.696Z,2.11
2023-03-02T10:00:18.289Z,2.05
2023-03-02T10:03:14.714Z,2.13
2023-03-02T10:05:46.650Z,2.18
2023-03-02T10:08:24.406Z,2.21
2023-03-02T10:11:03.104Z,2.24
2023-03-02T10:13:36.715Z,2.26
2023-03-02T10:16:25.174Z,2.26
2023-03-02T10:19:05.402Z,2.28
2023-03-02T10:21:41.052Z,2.31
2023-03-02T10:24:11.228Z,2.35
2023-03-02T10:27:02.160Z,2.34
2023-03-02T10:29:29.356Z,2.40
2023-03-02T10:32:08.503Z,2.42
2023-03-02T10:34:38.394Z,2.43
2023-03-02T10:37:15.613Z,2.43
2023-03-02T10:39:43.336Z,2.42
2023-03-02T10:42:22.157Z,2.49
2023-03-02T10:44:52.636Z,2.53
2023-03-02T10:47:28.274Z,2.60
2023-03-02T10:49:57.946Z,2.64
2023-03-02T10:52:28.868Z,2.67
2023-03-02T10:55:13.032Z,2.66
2023-03-02T10:57:42.420Z,2.83
2023-03-02T11:00:24.302Z,2.94
2023-03-02T11:02:59.143Z,3.11
2023-03-02T11:05:29.147Z,3.34
2023-03-02T11:08:02.282Z,3.43
2023-03-02T11:10:51.954Z,3.68
2023-03-02T11:13:39.901Z,3.96
2023-03-02T11:16:19.096Z,4.11
2023-03-02T11:19:08.602Z,4.24
2023-03-02T11:21:41.148Z,4.35
2023-03-02T11:24:14.347Z,4.49
2023-03-02T11:26:53.124Z,4.62
2023-03-02T11:29:31.894Z,4.52
2023-03-02T11:32:34.628Z,4.48
2023-03-02T11:35:22.470Z,4.62
2023-03-02T11:37:57.543Z,4.70
2023-03-02T11:40:47.407Z,4.86
2023-03-02T11:43:14.848Z,4.89
2023-03-02T11:45:47.801Z,4.88
2023-03-02T11:48:37.320Z,4.68
2023-03-02T11:51:10.900Z,4.47
2023-03-02T11:54:21.466Z,4.29
2023-03-02T11:56:48.938Z,4.24
2023-03-02T11:59:21.390Z,4.22
2023-03-02T12:01:53.579Z,4.24
2023-03-02T12:04:36.333Z,4.28
2023-03-02T12:07:27.508Z,4.18
2023-03-02T12:10:06.544Z,4.21
2023-03-02T12:12:47.663Z,4.33
2023-03-02T12:15:29.903Z,4.44
2023-03-02T12:17:57.229Z,4.53
2023-03-02T12:20:27.852Z,4.60
2023-03-02T12:23:07.052Z,4.67
2023-03-02T12:25:43.347Z,4.76
2023-03-02T12:28:30.393Z,4.80
2023-03-02T12:31:15.125Z,4.76
2023-03-02T12:33:53.058Z,4.64
2023-03-02T12:36:46.541Z,4.49
2023-03-02T12:39:39.195Z,4.43
2023-03-02T12:42:45.835Z,4.52
2023-03-02T12:45:38.114Z,4.61
2023-03-02T12:48:22.910Z,4.65
2023-03-02T12:50:52.399Z,4.70
2023-03-02T12:53:20.799Z,4.72
2023-03-02T12:55:48.252Z,4.64
2023-03-02T12:58:34.436Z,4.57
2023-03-02T13:01:03.980Z,4.61
2023-03-02T13:03:32.667Z,4.63
2023-03-02T13:06:05.823Z,4.65
2023-03-02T13:08:33.747Z,4.64
2023-03-02T13:11:02.392Z,4.72
2023-03-02T13:13:37.452Z,4.72
2023-03-02T13:16:08.553Z,4.70
2023-03-02T13:18:39.798Z,4.72
2023-03-02T13:21:10.549Z,4.66
2023-03-02T13:23:46.667Z,4.61
2023-03-02T13:26:35.705Z,4.56
2023-03-02T13:29:20.999Z,4.58
2023-03-02T13:31:48.461Z,4.58
2023-03-02T13:34:31.340Z,4.55
2023-03-02T13:36:59.349Z,4.50
2023-03-02T13:39:29.782Z,4.48
2023-03-02T13:41:59.539Z,4.50
2023-03-02T13:44:29.799Z,4.46
2023-03-02T13:46:57.809Z,4.44
2023-03-02T13:49:33.722Z,4.41
2023-03-02T13:52:29.968Z,4.38
2023-03-02T13:54:57.463Z,4.37
2023-03-02T13:57:30.876Z,4.38
2023-03-02T14:00:00.330Z,4.37
2023-03-02T14:02:29.809Z,4.38
2023-03-02T14:04:57.995Z,4.37
2023-03-02T14:07:25.456Z,4.38
2023-03-02T14:09:53.002Z,4.37
2023-03-02T14:12:27.746Z,4.31
2023-03-02T14:14:58.052Z,4.30
2023-03-02T14:17:26.901Z,4.30
2023-03-02T14:19:55.628Z,4.27
2023-03-02T14:22:26.040Z,4.28
2023-03-02T14:24:53.984Z,4.25
2023-03-02T14:27:24.175Z,4.23
2023-03-02T14:29:51.724Z,4.09
2023-03-02T14:32:19.045Z,4.12
2023-03-02T14:34:46.877Z,4.07
2023-03-02T14:37:18.686Z,4.07
2023-03-02T14:39:55.339Z,4.05
2023-03-02T14:42:24.491Z,3.97
2023-03-02T14:44:52.654Z,3.91
2023-03-02T14:47:22.004Z,3.90
2023-03-02T14:49:49.836Z,3.90
2023-03-02T14:52:49.943Z,3.88
2023-03-02T14:55:44.251Z,3.86
2023-03-02T14:58:17.237Z,3.83
2023-03-02T15:00:45.372Z,3.81
2023-03-02T15:03:16.006Z,3.77
2023-03-02T15:05:51.664Z,3.75
2023-03-02T15:08:26.647Z,3.68
2023-03-02T15:10:54.015Z,3.61
2023-03-02T15:13:22.251Z,3.61
2023-03-02T15:15:50.306Z,3.62
2023-03-02T15:18:20.053Z,3.57
2023-03-02T15:20:47.704Z,3.52
2023-03-02T15:23:15.008Z,3.52
2023-03-02T15:25:43.331Z,3.45
2023-03-02T15:28:11.069Z,3.47
2023-03-02T15:30:38.683Z,3.42
2023-03-02T15:33:06.062Z,3.41
2023-03-02T15:35:33.572Z,3.37
2023-03-02T15:38:02.870Z,3.36
2023-03-02T15:40:30.406Z,3.32
2023-03-02T15:42:57.635Z,3.22
2023-03-02T15:45:25.165Z,3.17
2023-03-02T15:47:52.436Z,3.17
2023-03-02T15:50:19.795Z,3.14
2023-03-02T15:52:47.194Z,3.11
2023-03-02T15:55:17.488Z,3.07
2023-03-02T15:57:44.817Z,2.99
2023-03-02T16:00:13.769Z,2.93
2023-03-02T16:02:41.418Z,2.88
2023-03-02T16:05:09.566Z,2.87
2023-03-02T16:07:37.549Z,2.83
2023-03-02T16:10:05.371Z,2.76
2023-03-02T16:12:33.040Z,2.66
2023-03-02T16:15:00.456Z,2.61
2023-03-02T16:17:28.141Z,2.61
2023-03-02T16:19:55.402Z,2.56
2023-03-02T16:22:22.754Z,2.53
2023-03-02T16:24:50.723Z,2.47
2023-03-02T16:27:18.360Z,2.41
2023-03-02T16:29:45.769Z,2.35
2023-03-02T16:32:13.399Z,2.28
2023-03-02T16:34:40.924Z,2.17
2023-03-02T16:37:08.448Z,2.15
2023-03-02T16:39:37.309Z,2.07
2023-03-02T16:42:04.901Z,2.00
2023-03-02T16:44:32.515Z,1.91
2023-03-02T16:46:59.977Z,1.64
2023-03-02T16:49:27.471Z,1.68
2023-03-02T16:51:58.498Z,1.66
2023-03-02T16:54:26.001Z,1.50
2023-03-02T16:56:53.465Z,1.58
2023-03-02T16:59:20.779Z,1.51
2023-03-02T17:01:48.200Z,1.45
2023-03-02T17:04:18.677Z,1.38
2023-03-02T17:07:01.949Z,1.38
2023-03-02T17:09:29.846Z,1.37
2023-03-02T17:11:57.282Z,1.33
2023-03-02T17:14:25.063Z,1.33
2023-03-02T17:16:52.808Z,1.29
2023-03-02T17:19:20.645Z,1.24
2023-03-02T17:21:47.964Z,1.16
2023-03-02T17:24:15.381Z,1.12
2023-03-02T17:26:42.949Z,1.09
2023-03-02T17:29:10.261Z,1.10
2023-03-02T17:31:38.134Z,1.09
2023-03-02T17:34:05.808Z,1.07
2023-03-02T17:36:36.298Z,1.07
2023-03-02T17:39:04.982Z,1.01
2023-03-02T17:41:34.079Z,1.01
2023-03-02T17:44:03.376Z,1.02
2023-03-02T17:46:32.727Z,1.01
2023-03-02T17:49:01.366Z,1.01
2023-03-02T17:51:29.547Z,0.99
2023-03-02T17:53:57.371Z,0.97
2023-03-02T17:56:26.849Z,0.93
2023-03-02T17:59:02.787Z,0.92
2023-03-02T18:01:30.743Z,0.76
2023-03-02T18:03:58.717Z,0.85
2023-03-02T18:06:26.133Z,0.78
2023-03-02T18:08:54.105Z,0.81
2023-03-02T18:11:23.801Z,0.80
2023-03-02T18:13:54.996Z,0.76
2023-03-02T18:16:28.477Z,0.77
2023-03-02T18:18:57.591Z,0.75
2023-03-02T18:21:25.238Z,0.74
2023-03-02T18:23:52.916Z,0.71
2023-03-02T18:26:20.892Z,0.72
2023-03-02T18:28:48.140Z,0.73
2023-03-02T18:31:16.986Z,0.74
2023-03-02T18:33:45.511Z,0.72
2023-03-02T18:36:13.210Z,0.72
2023-03-02T18:38:41.345Z,0.69
2023-03-02T18:41:09.708Z,0.68
2023-03-02T18:43:39.851Z,0.65
2023-03-02T18:46:07.112Z,0.60
2023-03-02T18:48:34.900Z,0.58
2023-03-02T18:51:02.329Z,0.57
2023-03-02T18:53:29.878Z,0.57
2023-03-02T18:55:57.209Z,0.54
2023-03-02T18:58:25.833Z,0.52
2023-03-02T19:00:54.495Z,0.49
2023-03-02T19:03:22.710Z,0.47
2023-03-02T19:05:50.239Z,0.44
2023-03-02T19:08:17.658Z,0.44
2023-03-02T19:10:44.932Z,0.46
2023-03-02T19:13:13.910Z,0.44
2023-03-02T19:15:42.072Z,0.42
2023-03-02T19:18:14.347Z,0.42
2023-03-02T19:20:41.864Z,0.42
2023-03-02T19:23:09.286Z,0.41
2023-03-02T19:25:36.898Z,0.42
2023-03-02T19:28:04.782Z,0.40
2023-03-02T19:30:32.278Z,0.40
2023-03-02T19:33:00.048Z,0.42
2023-03-02T19:35:31.934Z,0.43
2023-03-02T19:37:59.385Z,0.35
2023-03-02T19:40:29.432Z,0.40
2023-03-02T19:42:57.301Z,0.38
2023-03-02T19:45:29.928Z,0.35
2023-03-02T19:47:58.976Z,0.27
2023-03-02T19:50:28.395Z,0.24
2023-03-02T19:52:57.045Z,0.25
2023-03-02T19:55:27.654Z,0.21
2023-03-02T19:58:00.445Z,0.21
2023-03-02T20:00:30.439Z,0.24
2023-03-02T20:02:58.041Z,0.22
2023-03-02T20:05:27.704Z,0.05
2023-03-02T20:07:55.661Z,0.21
2023-03-02T20:10:26.954Z,0.14
2023-03-02T20:12:54.429Z,0.17
2023-03-02T20:15:21.926Z,0.15
2023-03-02T20:17:49.322Z,0.11
2023-03-02T20:20:16.923Z,0.09
2023-03-02T20:22:45.721Z,0.08
2023-03-02T20:25:14.772Z,0.12
2023-03-02T20:27:42.649Z,0.11
2023-03-02T20:30:16.187Z,0.14
2023-03-02T20:32:43.569Z,0.18
2023-03-02T20:35:13.290Z,0.17
2023-03-02T20:37:41.850Z,0.23
2023-03-02T20:40:11.177Z,0.26
2023-03-02T20:42:40.233Z,0.28
2023-03-02T20:45:09.974Z,0.33
2023-03-02T20:47:37.925Z,0.27
2023-03-02T20:50:08.689Z,0.21
2023-03-02T20:52:37.198Z,0.15
2023-03-02T20:55:06.446Z,0.13
2023-03-02T20:57:34.352Z,0.13
2023-03-02T21:00:02.740Z,0.13
2023-03-02T21:02:30.138Z,0.12
2023-03-02T21:04:57.486Z,0.15
2023-03-02T21:07:24.787Z,0.15
2023-03-02T21:09:52.147Z,0.13
2023-03-02T21:12:19.657Z,0.16
2023-03-02T21:14:47.366Z,0.15
2023-03-02T21:17:14.740Z,0.14
2023-03-02T21:19:42.470Z,0.14
2023-03-02T21:22:09.923Z,0.18
2023-03-02T21:24:37.192Z,0.15
2023-03-02T21:27:05.718Z,0.19
2023-03-02T21:29:34.449Z,0.21
2023-03-02T21:32:01.947Z,0.18
2023-03-02T21:34:29.742Z,0.05
2023-03-02T21:36:58.033Z,0.05
2023-03-02T21:39:25.626Z,0.03
2023-03-02T21:41:53.701Z,0.01
2023-03-02T21:44:21.515Z,0.01
2023-03-02T21:46:49.065Z,-0.01
2023-03-02T21:49:18.063Z,-0.05
2023-03-02T21:51:47.069Z,-0.05
2023-03-02T21:54:15.693Z,-0.14
2023-03-02T21:56:44.144Z,-0.19
2023-03-02T21:59:12.227Z,-0.16
2023-03-02T22:01:39.816Z,-0.15
2023-03-02T22:04:07.382Z,-0.34
2023-03-02T22:06:35.487Z,-0.12
2023-03-02T22:09:04.384Z,-0.09
2023-03-02T22:11:35.357Z,-0.17
2023-03-02T22:14:13.272Z,-0.14
2023-03-02T22:16:42.898Z,-0.16
2023-03-02T22:19:19.272Z,-0.24
2023-03-02T22:21:49.583Z,-0.27
2023-03-02T22:24:22.982Z,-0.32
2023-03-02T22:27:11.386Z,-0.39
2023-03-02T22:29:44.550Z,-0.45
2023-03-02T22:32:20.730Z,-0.43
2023-03-02T22:34:51.324Z,-0.49
2023-03-02T22:37:21.902Z,-0.57
2023-03-02T22:39:53.728Z,-0.54
2023-03-02T22:42:25.415Z,-0.52
2023-03-02T22:45:00.104Z,-0.49
2023-03-02T22:47:27.565Z,-0.45
2023-03-02T22:50:14.622Z,-0.43
2023-03-02T22:52:44.100Z,-0.38
2023-03-02T22:55:43.414Z,-0.36
2023-03-02T22:58:25.757Z,-0.39
2023-03-02T23:00:53.740Z,-0.40
2023-03-02T23:03:23.735Z,-0.40
2023-03-02T23:05:53.224Z,-0.37
2023-03-02T23:08:26.867Z,-0.35
2023-03-02T23:10:59.810Z,-0.37
2023-03-02T23:13:39.280Z,-0.42
2023-03-02T23:16:25.554Z,-0.48
2023-03-02T23:18:55.724Z,-0.51
2023-03-02T23:21:50.023Z,-0.54
2023-03-02T23:24:19.353Z,-0.54
2023-03-02T23:26:46.864Z,-0.50
2023-03-02T23:29:14.511Z,-0.57
2023-03-02T23:31:41.898Z,-0.51
2023-03-02T23:34:09.349Z,-0.48
2023-03-02T23:36:37.942Z,-0.52
2023-03-02T23:39:06.019Z,-0.42
2023-03-02T23:41:34.009Z,-0.45
2023-03-02T23:44:01.456Z,-0.48
2023-03-02T23:46:29.133Z,-0.51
2023-03-02T23:48:56.977Z,-0.59
2023-03-02T23:51:25.779Z,-0.58
2023-03-02T23:53:54.194Z,-0.49
2023-03-02T23:56:21.961Z,-0.50
2023-03-02T23:58:49.723Z,-0.55
